Terminal Aerodrome Forecast
Issued by NWS Birmingham, AL

Home | Current Version | Previous Version | Text Only | Print | Product List | Glossary On
Versions: 1 2 3 4 5 6 7 8 9 10 11 12 13 14 15 16 17 18 19
000
FTUS44 KBMX 222300
TAFBHM
TAF
KBHM 222333Z 2300/2324 12008KT 6SM BR VCSH OVC007
     FM230500 15006KT 2SM BR VCSH OVC003
      TEMPO 2311/2315 1/4SM FG VV002
     FM231600 15007KT 4SM BR OVC007
     FM231900 16010KT 4SM SHRA SCT007 BKN015=

USA.gov is the U.S. government's official web portal to all federal, state and local government web resources and services.